sensor_id;sensor_type;location;lat;lon;timestamp;temperature;humidity
26049;DHT22;13822;51.568;5.086;2023-03-23T00:16:32;12.10;99.90
26049;DHT22;13822;51.568;5.086;2023-03-23T00:22:13;12.10;99.90
26049;DHT22;13822;51.568;5.086;2023-03-23T00:27:27;12.20;99.90
26049;DHT22;13822;51.568;5.086;2023-03-23T00:39:23;12.20;99.90
26049;DHT22;13822;51.568;5.086;2023-03-23T01:59:02;12.20;99.90
26049;DHT22;13822;51.568;5.086;2023-03-23T02:05:32;12.20;99.90
26049;DHT22;13822;51.568;5.086;2023-03-23T02:11:56;12.30;99.90
26049;DHT22;13822;51.568;5.086;2023-03-23T03:28:57;12.70;99.90
26049;DHT22;13822;51.568;5.086;2023-03-23T03:41:32;12.70;99.90
26049;DHT22;13822;51.568;5.086;2023-03-23T04:01:18;12.70;99.90
26049;DHT22;13822;51.568;5.086;2023-03-23T04:20:35;12.60;99.90
26049;DHT22;13822;51.568;5.086;2023-03-23T05:06:53;12.50;99.90
26049;DHT22;13822;51.568;5.086;2023-03-23T05:19:49;12.50;99.90
26049;DHT22;13822;51.568;5.086;2023-03-23T05:51:19;12.40;99.90
26049;DHT22;13822;51.568;5.086;2023-03-23T05:56:20;12.40;99.90
26049;DHT22;13822;51.568;5.086;2023-03-23T06:01:24;12.40;99.90
26049;DHT22;13822;51.568;5.086;2023-03-23T06:06:25;12.40;99.90
26049;DHT22;13822;51.568;5.086;2023-03-23T06:11:26;12.30;99.90
26049;DHT22;13822;51.568;5.086;2023-03-23T06:16:27;12.40;99.90
26049;DHT22;13822;51.568;5.086;2023-03-23T06:21:28;12.40;99.90
26049;DHT22;13822;51.568;5.086;2023-03-23T06:26:38;12.40;99.90
26049;DHT22;13822;51.568;5.086;2023-03-23T06:31:43;12.30;99.90
26049;DHT22;13822;51.568;5.086;2023-03-23T06:36:45;12.20;99.90
26049;DHT22;13822;51.568;5.086;2023-03-23T06:41:47;12.10;99.90
26049;DHT22;13822;51.568;5.086;2023-03-23T06:46:48;11.90;99.90
26049;DHT22;13822;51.568;5.086;2023-03-23T06:51:48;11.80;99.90
26049;DHT22;13822;51.568;5.086;2023-03-23T06:56:49;11.70;99.90
26049;DHT22;13822;51.568;5.086;2023-03-23T07:01:51;11.60;99.90
26049;DHT22;13822;51.568;5.086;2023-03-23T07:06:52;11.40;99.90
26049;DHT22;13822;51.568;5.086;2023-03-23T07:11:53;11.40;99.90
26049;DHT22;13822;51.568;5.086;2023-03-23T07:16:53;11.30;99.90
26049;DHT22;13822;51.568;5.086;2023-03-23T07:21:54;11.30;99.90
26049;DHT22;13822;51.568;5.086;2023-03-23T07:26:57;11.20;99.90
26049;DHT22;13822;51.568;5.086;2023-03-23T07:31:58;11.10;99.90
26049;DHT22;13822;51.568;5.086;2023-03-23T07:36:59;11.00;99.90
26049;DHT22;13822;51.568;5.086;2023-03-23T07:42:00;10.90;99.90
26049;DHT22;13822;51.568;5.086;2023-03-23T07:47:01;10.80;99.90
26049;DHT22;13822;51.568;5.086;2023-03-23T07:52:02;10.70;99.90
26049;DHT22;13822;51.568;5.086;2023-03-23T07:57:03;10.70;99.90
26049;DHT22;13822;51.568;5.086;2023-03-23T08:02:05;10.60;99.90
26049;DHT22;13822;51.568;5.086;2023-03-23T08:07:06;10.50;99.90
26049;DHT22;13822;51.568;5.086;2023-03-23T08:12:07;10.50;99.90
26049;DHT22;13822;51.568;5.086;2023-03-23T08:17:08;10.50;99.90
26049;DHT22;13822;51.568;5.086;2023-03-23T08:22:11;10.40;99.90
26049;DHT22;13822;51.568;5.086;2023-03-23T08:27:13;10.50;99.90
26049;DHT22;13822;51.568;5.086;2023-03-23T08:32:14;10.50;99.90
26049;DHT22;13822;51.568;5.086;2023-03-23T08:37:15;10.50;99.90
26049;DHT22;13822;51.568;5.086;2023-03-23T08:42:17;10.50;99.90
26049;DHT22;13822;51.568;5.086;2023-03-23T08:47:18;10.50;99.90
26049;DHT22;13822;51.568;5.086;2023-03-23T08:52:20;10.60;99.90
26049;DHT22;13822;51.568;5.086;2023-03-23T08:57:21;10.60;99.90
26049;DHT22;13822;51.568;5.086;2023-03-23T09:02:22;10.70;99.90
26049;DHT22;13822;51.568;5.086;2023-03-23T09:07:24;10.70;99.90
26049;DHT22;13822;51.568;5.086;2023-03-23T09:12:25;10.70;99.90
26049;DHT22;13822;51.568;5.086;2023-03-23T09:17:26;10.70;99.90
26049;DHT22;13822;51.568;5.086;2023-03-23T09:22:27;10.80;99.90
26049;DHT22;13822;51.568;5.086;2023-03-23T09:27:28;10.90;99.90
26049;DHT22;13822;51.568;5.086;2023-03-23T09:32:29;11.00;99.90
26049;DHT22;13822;51.568;5.086;2023-03-23T09:37:30;11.10;99.90
26049;DHT22;13822;51.568;5.086;2023-03-23T09:53:38;11.50;99.90
26049;DHT22;13822;51.568;5.086;2023-03-23T09:58:45;11.70;99.90
26049;DHT22;13822;51.568;5.086;2023-03-23T10:03:51;11.80;99.90
26049;DHT22;13822;51.568;5.086;2023-03-23T10:08:57;12.00;99.90
26049;DHT22;13822;51.568;5.086;2023-03-23T10:14:23;12.20;99.90
26049;DHT22;13822;51.568;5.086;2023-03-23T10:24:54;12.40;99.90
26049;DHT22;13822;51.568;5.086;2023-03-23T10:30:03;12.70;99.90
26049;DHT22;13822;51.568;5.086;2023-03-23T10:35:16;13.00;99.90
26049;DHT22;13822;51.568;5.086;2023-03-23T10:40:29;13.20;99.90
26049;DHT22;13822;51.568;5.086;2023-03-23T10:45:31;13.30;99.90
26049;DHT22;13822;51.568;5.086;2023-03-23T10:50:35;13.50;99.90
26049;DHT22;13822;51.568;5.086;2023-03-23T10:55:39;13.60;99.90
26049;DHT22;13822;51.568;5.086;2023-03-23T11:00:43;13.80;99.90
26049;DHT22;13822;51.568;5.086;2023-03-23T11:10:50;14.00;99.90
26049;DHT22;13822;51.568;5.086;2023-03-23T11:15:58;14.10;99.90
26049;DHT22;13822;51.568;5.086;2023-03-23T11:20:59;14.10;99.90
26049;DHT22;13822;51.568;5.086;2023-03-23T11:26:14;14.00;99.90
26049;DHT22;13822;51.568;5.086;2023-03-23T11:31:16;14.00;99.90
26049;DHT22;13822;51.568;5.086;2023-03-23T11:36:18;14.10;99.90
26049;DHT22;13822;51.568;5.086;2023-03-23T11:41:21;14.20;99.90
26049;DHT22;13822;51.568;5.086;2023-03-23T11:51:40;14.70;99.90
26049;DHT22;13822;51.568;5.086;2023-03-23T11:56:45;15.40;99.90
26049;DHT22;13822;51.568;5.086;2023-03-23T12:01:48;15.70;99.90
26049;DHT22;13822;51.568;5.086;2023-03-23T12:06:54;15.80;99.90
26049;DHT22;13822;51.568;5.086;2023-03-23T12:44:09;16.90;99.90
26049;DHT22;13822;51.568;5.086;2023-03-23T12:49:18;17.00;99.90
26049;DHT22;13822;51.568;5.086;2023-03-23T12:54:36;16.80;99.90
26049;DHT22;13822;51.568;5.086;2023-03-23T13:05:04;16.50;99.90
26049;DHT22;13822;51.568;5.086;2023-03-23T13:10:19;16.40;99.90
26049;DHT22;13822;51.568;5.086;2023-03-23T13:15:38;16.20;99.90
26049;DHT22;13822;51.568;5.086;2023-03-23T13:20:55;16.10;99.90
26049;DHT22;13822;51.568;5.086;2023-03-23T13:26:08;15.60;99.90
26049;DHT22;13822;51.568;5.086;2023-03-23T13:31:13;15.30;99.90
26049;DHT22;13822;51.568;5.086;2023-03-23T13:36:26;15.10;99.90
26049;DHT22;13822;51.568;5.086;2023-03-23T13:41:30;14.90;99.90
26049;DHT22;13822;51.568;5.086;2023-03-23T13:46:31;15.00;99.90
26049;DHT22;13822;51.568;5.086;2023-03-23T13:51:46;15.40;99.90
26049;DHT22;13822;51.568;5.086;2023-03-23T14:02:26;16.70;99.90
26049;DHT22;13822;51.568;5.086;2023-03-23T14:07:32;17.40;99.90
26049;DHT22;13822;51.568;5.086;2023-03-23T14:12:36;17.60;99.90
26049;DHT22;13822;51.568;5.086;2023-03-23T14:17:40;17.60;99.90
26049;DHT22;13822;51.568;5.086;2023-03-23T14:22:45;17.80;99.90
26049;DHT22;13822;51.568;5.086;2023-03-23T14:27:46;18.20;99.90
26049;DHT22;13822;51.568;5.086;2023-03-23T14:32:48;18.90;99.90
26049;DHT22;13822;51.568;5.086;2023-03-23T14:37:52;19.50;99.90
26049;DHT22;13822;51.568;5.086;2023-03-23T14:42:53;20.00;99.90
26049;DHT22;13822;51.568;5.086;2023-03-23T14:47:59;20.00;99.90
26049;DHT22;13822;51.568;5.086;2023-03-23T14:53:07;20.20;99.90
26049;DHT22;13822;51.568;5.086;2023-03-23T14:58:13;20.10;99.90
26049;DHT22;13822;51.568;5.086;2023-03-23T15:03:15;19.60;99.90
26049;DHT22;13822;51.568;5.086;2023-03-23T15:08:38;18.90;99.90
26049;DHT22;13822;51.568;5.086;2023-03-23T15:13:41;18.40;99.90
26049;DHT22;13822;51.568;5.086;2023-03-23T15:18:47;18.40;99.90
26049;DHT22;13822;51.568;5.086;2023-03-23T15:23:56;18.00;99.90
26049;DHT22;13822;51.568;5.086;2023-03-23T15:29:09;17.60;99.90
26049;DHT22;13822;51.568;5.086;2023-03-23T15:34:16;17.60;99.90
26049;DHT22;13822;51.568;5.086;2023-03-23T15:39:30;18.00;99.90
26049;DHT22;13822;51.568;5.086;2023-03-23T15:44:32;18.10;99.90
26049;DHT22;13822;51.568;5.086;2023-03-23T15:49:33;18.20;99.90
26049;DHT22;13822;51.568;5.086;2023-03-23T15:54:35;18.30;99.90
26049;DHT22;13822;51.568;5.086;2023-03-23T15:59:36;18.10;99.90
26049;DHT22;13822;51.568;5.086;2023-03-23T16:04:39;17.90;99.90
26049;DHT22;13822;51.568;5.086;2023-03-23T16:09:44;17.80;99.90
26049;DHT22;13822;51.568;5.086;2023-03-23T16:14:46;18.00;99.90
26049;DHT22;13822;51.568;5.086;2023-03-23T16:19:48;17.80;99.90
26049;DHT22;13822;51.568;5.086;2023-03-23T16:24:50;17.40;99.90
26049;DHT22;13822;51.568;5.086;2023-03-23T16:29:52;17.40;99.90
26049;DHT22;13822;51.568;5.086;2023-03-23T16:35:04;17.30;99.90
26049;DHT22;13822;51.568;5.086;2023-03-23T16:40:06;17.10;99.90
26049;DHT22;13822;51.568;5.086;2023-03-23T16:45:10;16.80;99.90
26049;DHT22;13822;51.568;5.086;2023-03-23T16:50:14;16.60;99.90
26049;DHT22;13822;51.568;5.086;2023-03-23T16:55:17;16.30;99.90
26049;DHT22;13822;51.568;5.086;2023-03-23T17:00:19;16.10;99.90
26049;DHT22;13822;51.568;5.086;2023-03-23T17:05:23;15.90;99.90
26049;DHT22;13822;51.568;5.086;2023-03-23T17:10:28;15.80;99.90
26049;DHT22;13822;51.568;5.086;2023-03-23T17:15:31;15.60;99.90
26049;DHT22;13822;51.568;5.086;2023-03-23T17:20:33;15.50;99.90
26049;DHT22;13822;51.568;5.086;2023-03-23T17:25:35;15.50;99.90
26049;DHT22;13822;51.568;5.086;2023-03-23T17:30:41;15.50;99.90
26049;DHT22;13822;51.568;5.086;2023-03-23T17:35:44;15.40;99.90
26049;DHT22;13822;51.568;5.086;2023-03-23T17:40:54;15.30;99.90
26049;DHT22;13822;51.568;5.086;2023-03-23T17:45:57;15.30;99.90
26049;DHT22;13822;51.568;5.086;2023-03-23T17:50:59;15.20;99.90
26049;DHT22;13822;51.568;5.086;2023-03-23T17:56:03;15.20;99.90
26049;DHT22;13822;51.568;5.086;2023-03-23T18:01:06;15.10;99.90
26049;DHT22;13822;51.568;5.086;2023-03-23T18:06:08;15.00;99.90
26049;DHT22;13822;51.568;5.086;2023-03-23T18:11:10;14.90;99.90
26049;DHT22;13822;51.568;5.086;2023-03-23T18:16:16;14.80;99.90
26049;DHT22;13822;51.568;5.086;2023-03-23T18:21:18;14.90;99.90
26049;DHT22;13822;51.568;5.086;2023-03-23T18:26:20;14.80;99.90
26049;DHT22;13822;51.568;5.086;2023-03-23T18:31:22;14.80;99.90
26049;DHT22;13822;51.568;5.086;2023-03-23T18:36:25;14.70;99.90
26049;DHT22;13822;51.568;5.086;2023-03-23T18:41:27;14.70;99.90
26049;DHT22;13822;51.568;5.086;2023-03-23T18:46:29;14.60;99.90
26049;DHT22;13822;51.568;5.086;2023-03-23T18:51:33;14.60;99.90
26049;DHT22;13822;51.568;5.086;2023-03-23T18:56:38;14.60;99.90
26049;DHT22;13822;51.568;5.086;2023-03-23T19:01:40;14.60;99.90
26049;DHT22;13822;51.568;5.086;2023-03-23T19:06:42;14.60;99.90
26049;DHT22;13822;51.568;5.086;2023-03-23T19:11:45;14.50;99.90
26049;DHT22;13822;51.568;5.086;2023-03-23T19:16:47;14.50;99.90
26049;DHT22;13822;51.568;5.086;2023-03-23T19:21:49;14.50;99.90
26049;DHT22;13822;51.568;5.086;2023-03-23T19:26:51;14.40;99.90
26049;DHT22;13822;51.568;5.086;2023-03-23T19:31:53;14.40;99.90
26049;DHT22;13822;51.568;5.086;2023-03-23T19:36:57;14.30;99.90
26049;DHT22;13822;51.568;5.086;2023-03-23T19:42:06;14.30;99.90
26049;DHT22;13822;51.568;5.086;2023-03-23T19:47:11;14.20;99.90
26049;DHT22;13822;51.568;5.086;2023-03-23T19:52:16;14.10;99.90
26049;DHT22;13822;51.568;5.086;2023-03-23T19:57:20;14.00;99.90
26049;DHT22;13822;51.568;5.086;2023-03-23T20:02:22;13.90;99.90
26049;DHT22;13822;51.568;5.086;2023-03-23T20:07:24;13.90;99.90
26049;DHT22;13822;51.568;5.086;2023-03-23T20:12:27;13.80;99.90
26049;DHT22;13822;51.568;5.086;2023-03-23T20:17:29;13.70;99.90
26049;DHT22;13822;51.568;5.086;2023-03-23T20:22:31;13.70;99.90
26049;DHT22;13822;51.568;5.086;2023-03-23T20:27:34;13.60;99.90
26049;DHT22;13822;51.568;5.086;2023-03-23T20:32:38;13.60;99.90
26049;DHT22;13822;51.568;5.086;2023-03-23T20:37:41;13.60;99.90
26049;DHT22;13822;51.568;5.086;2023-03-23T20:42:43;13.50;99.90
26049;DHT22;13822;51.568;5.086;2023-03-23T20:47:45;13.40;99.90
26049;DHT22;13822;51.568;5.086;2023-03-23T20:52:48;13.40;99.90
26049;DHT22;13822;51.568;5.086;2023-03-23T20:57:50;13.30;99.90
26049;DHT22;13822;51.568;5.086;2023-03-23T21:02:52;13.30;99.90
26049;DHT22;13822;51.568;5.086;2023-03-23T21:07:54;13.30;99.90
26049;DHT22;13822;51.568;5.086;2023-03-23T21:12:58;13.20;99.90
26049;DHT22;13822;51.568;5.086;2023-03-23T21:18:00;13.20;99.90
26049;DHT22;13822;51.568;5.086;2023-03-23T21:23:03;13.20;99.90
26049;DHT22;13822;51.568;5.086;2023-03-23T21:28:08;13.20;99.90
26049;DHT22;13822;51.568;5.086;2023-03-23T21:33:12;13.10;99.90
26049;DHT22;13822;51.568;5.086;2023-03-23T21:38:14;13.00;99.90
26049;DHT22;13822;51.568;5.086;2023-03-23T21:43:16;13.00;99.90
26049;DHT22;13822;51.568;5.086;2023-03-23T21:48:18;12.90;99.90
26049;DHT22;13822;51.568;5.086;2023-03-23T21:53:22;12.90;99.90
26049;DHT22;13822;51.568;5.086;2023-03-23T21:58:26;12.70;99.90
26049;DHT22;13822;51.568;5.086;2023-03-23T22:49:13;12.20;99.90
26049;DHT22;13822;51.568;5.086;2023-03-23T23:21:25;12.20;99.90
26049;DHT22;13822;51.568;5.086;2023-03-23T23:26:54;12.20;99.90
26049;DHT22;13822;51.568;5.086;2023-03-23T23:38:40;12.20;99.90
26049;DHT22;13822;51.568;5.086;2023-03-23T23:44:01;12.30;99.90
